.
WxDataArchive / Data Records for 2016-01-19
2016-01-18 January 2016 2016-01-20

Data Records for Tuesday, 19 January 2016

Time	Temp	Chill	HIndex	Humid	Dewpt	 Wind 	HiWind	WindDir	Rain 	Barom
-----	----	-----	------	-----	-----	------	------	-------	-----	-----
00:00	6.0	6.0	6.0	62	-4.2	1	3	292	0.00	30.359 
00:05	6.0	6.0	6.0	63	-3.8	0	2	292	0.00	30.359 
00:10	5.8	5.8	5.8	63	-4.0	0	1	292	0.00	30.359 
00:15	5.8	5.8	5.8	64	-3.7	0	2	292	0.00	30.362 
00:20	5.8	5.8	5.8	64	-3.7	0	3	292	0.00	30.362 
00:25	5.8	5.8	5.8	64	-3.7	0	2	292	0.00	30.362 
00:30	5.8	5.8	5.8	64	-3.7	0	1	292	0.00	30.371 
00:35	5.6	5.6	5.6	65	-3.6	0	2	292	0.00	30.371 
00:40	5.6	5.6	5.6	65	-3.6	0	1	292	0.00	30.371 
00:45	5.6	5.6	5.6	65	-3.6	0	2	292	0.00	30.371 
00:50	5.6	5.6	5.6	65	-3.6	0	2	292	0.00	30.371 
00:55	5.6	5.6	5.6	64	-3.9	1	3	292	0.00	30.371 
01:00	5.6	5.6	5.6	64	-3.9	1	4	292	0.00	30.371 
01:05	5.6	5.6	5.6	64	-3.9	0	2	292	0.00	30.371 
01:10	5.6	5.6	5.6	64	-3.9	0	2	292	0.00	30.371 
01:15	5.6	5.6	5.6	65	-3.6	0	2	292	0.00	30.363 
01:20	5.4	5.4	5.4	65	-3.8	0	2	292	0.00	30.363 
01:25	5.4	5.4	5.4	65	-3.8	1	3	292	0.00	30.363 
01:30	5.4	5.4	5.4	65	-3.8	0	2	292	0.00	30.366 
01:35	5.4	5.4	5.4	65	-3.8	0	2	292	0.00	30.366 
01:40	5.4	5.4	5.4	65	-3.8	1	3	292	0.00	30.366 
01:45	5.4	5.4	5.4	65	-3.8	0	2	292	0.00	30.355 
01:50	5.4	5.4	5.4	65	-3.8	0	3	292	0.00	30.355 
01:55	5.4	5.4	5.4	65	-3.8	0	2	292	0.00	30.355 
02:00	5.4	5.4	5.4	65	-3.8	1	3	292	0.00	30.361 
02:05	5.4	5.4	5.4	65	-3.8	0	2	292	0.00	30.361 
02:10	5.4	5.4	5.4	65	-3.8	0	2	292	0.00	30.361 
02:15	5.4	5.4	5.4	65	-3.8	0	3	292	0.00	30.370 
02:20	5.4	5.4	5.4	66	-3.5	0	2	292	0.00	30.370 
02:25	5.4	5.4	5.4	66	-3.5	0	2	292	0.00	30.370 
02:30	5.2	5.2	5.2	66	-3.6	1	4	292	0.00	30.371 
02:35	5.2	5.2	5.2	66	-3.6	0	3	270	0.00	30.371 
02:40	5.2	5.2	5.2	66	-3.6	0	3	270	0.00	30.371 
02:45	5.2	5.2	5.2	66	-3.6	0	2	270	0.00	30.370 
02:50	5.2	5.2	5.2	66	-3.6	0	2	270	0.00	30.370 
02:55	5.2	5.2	5.2	66	-3.6	0	2	270	0.00	30.370 
03:00	5.0	5.0	5.0	66	-3.8	0	1	270	0.00	30.373 
03:05	5.0	5.0	5.0	66	-3.8	0	1	270	0.00	30.373 
03:10	5.0	5.0	5.0	66	-3.8	0	1	270	0.00	30.373 
03:15	5.0	5.0	5.0	67	-3.5	0	1	270	0.00	30.377 
03:20	5.0	5.0	5.0	67	-3.5	0	1	270	0.00	30.377 
03:25	5.0	5.0	5.0	67	-3.5	0	2	270	0.00	30.377 
03:30	5.0	5.0	5.0	67	-3.5	0	1	270	0.00	30.379 
03:35	5.0	5.0	5.0	67	-3.5	0	1	270	0.00	30.379 
03:40	5.0	5.0	5.0	67	-3.5	0	2	270	0.00	30.379 
03:45	5.2	5.2	5.2	67	-3.3	0	1	270	0.00	30.388 
03:50	5.2	5.2	5.2	67	-3.3	0	2	270	0.00	30.388 
03:55	5.4	5.4	5.4	68	-2.8	0	2	270	0.00	30.388 
04:00	5.4	5.4	5.4	68	-2.8	1	3	270	0.00	30.392 
04:05	5.4	5.4	5.4	67	-3.1	0	1	270	0.00	30.392 
04:10	5.4	5.4	5.4	67	-3.1	0	1	270	0.00	30.392 
04:15	5.2	5.2	5.2	67	-3.3	0	2	270	0.00	30.394 
04:20	5.0	5.0	5.0	67	-3.5	0	1	270	0.00	30.394 
04:25	5.0	5.0	5.0	67	-3.5	0	1	270	0.00	30.394 
04:30	5.0	5.0	5.0	67	-3.5	0	1	270	0.00	30.401 
04:35	5.0	5.0	5.0	68	-3.2	0	1	270	0.00	30.401 
04:40	5.0	5.0	5.0	68	-3.2	0	2	270	0.00	30.401 
04:45	5.0	5.0	5.0	68	-3.2	0	1	270	0.00	30.404 
04:50	5.0	5.0	5.0	68	-3.2	0	1	270	0.00	30.404 
04:55	5.0	5.0	5.0	68	-3.2	0	0	---	0.00	30.404 
05:00	4.8	4.8	4.8	68	-3.4	0	1	270	0.00	30.406 
05:05	4.8	4.8	4.8	68	-3.4	0	1	270	0.00	30.406 
05:10	4.8	4.8	4.8	68	-3.4	0	1	270	0.00	30.406 
05:15	4.8	4.8	4.8	68	-3.4	0	2	270	0.00	30.408 
05:20	4.8	4.8	4.8	68	-3.4	0	2	270	0.00	30.408 
05:25	4.8	4.8	4.8	68	-3.4	0	2	270	0.00	30.408 
05:30	4.7	4.7	4.7	68	-3.5	0	1	270	0.00	30.422 
05:35	4.7	4.7	4.7	68	-3.5	0	2	270	0.00	30.422 
05:40	4.7	4.7	4.7	68	-3.5	0	2	270	0.00	30.422 
05:45	4.8	4.8	4.8	69	-3.1	0	1	270	0.00	30.437 
05:50	4.8	4.8	4.8	69	-3.1	0	2	270	0.00	30.437 
05:55	5.0	5.0	5.0	69	-2.9	0	1	270	0.00	30.437 
06:00	5.2	5.2	5.2	69	-2.7	0	3	270	0.00	30.443 
06:05	5.2	5.2	5.2	69	-2.7	0	1	270	0.00	30.443 
06:10	5.4	5.4	5.4	69	-2.5	0	1	270	0.00	30.443 
06:15	5.4	5.4	5.4	69	-2.5	0	1	270	0.00	30.450 
06:20	5.6	5.6	5.6	69	-2.3	0	2	270	0.00	30.450 
06:25	5.6	5.6	5.6	68	-2.6	0	1	270	0.00	30.450 
06:30	5.6	5.6	5.6	68	-2.6	0	2	270	0.00	30.451 
06:35	5.6	5.6	5.6	68	-2.6	0	1	270	0.00	30.451 
06:40	5.6	5.6	5.6	69	-2.3	0	1	270	0.00	30.451 
06:45	5.6	5.6	5.6	69	-2.3	0	1	270	0.00	30.455 
06:50	5.6	5.6	5.6	69	-2.3	0	3	270	0.00	30.455 
06:55	5.8	5.8	5.8	69	-2.1	0	1	270	0.00	30.455 
07:00	5.8	5.8	5.8	69	-2.1	0	1	270	0.00	30.468 
07:05	5.8	5.8	5.8	69	-2.1	0	1	270	0.00	30.468 
07:10	5.8	5.8	5.8	69	-2.1	0	1	270	0.00	30.468 
07:15	5.8	5.8	5.8	69	-2.1	0	2	270	0.00	30.470 
07:20	5.8	5.8	5.8	69	-2.1	0	2	270	0.00	30.470 
07:25	5.6	5.6	5.6	69	-2.3	0	1	270	0.00	30.470 
07:30	5.6	5.6	5.6	69	-2.3	0	1	270	0.00	30.476 
07:35	5.4	5.4	5.4	69	-2.5	0	2	270	0.00	30.476 
07:40	5.4	5.4	5.4	69	-2.5	0	2	270	0.00	30.476 
07:45	5.4	5.4	5.4	69	-2.5	0	2	270	0.00	30.485 
07:50	5.4	5.4	5.4	69	-2.5	0	1	270	0.00	30.485 
07:55	5.4	5.4	5.4	69	-2.5	0	2	270	0.00	30.485 
08:00	5.2	5.2	5.2	69	-2.7	0	1	270	0.00	30.489 
08:05	5.2	5.2	5.2	70	-2.4	0	2	270	0.00	30.489 
08:10	5.2	5.2	5.2	70	-2.4	0	2	270	0.00	30.489 
08:15	5.2	5.2	5.2	70	-2.4	0	2	270	0.00	30.491 
08:20	5.2	5.2	5.2	70	-2.4	0	2	270	0.00	30.491 
08:25	5.2	5.2	5.2	70	-2.4	0	1	270	0.00	30.491 
08:30	5.4	5.4	5.4	70	-2.2	0	3	270	0.00	30.490 
08:35	5.4	5.4	5.4	70	-2.2	0	2	270	0.00	30.490 
08:40	5.6	5.6	5.6	70	-2.0	0	2	270	0.00	30.490 
08:45	5.6	5.6	5.6	69	-2.3	1	2	270	0.00	30.499 
08:50	5.8	5.8	5.8	70	-1.8	0	2	270	0.00	30.499 
08:55	6.0	6.0	6.0	70	-1.6	0	1	270	0.00	30.499 
09:00	6.0	6.0	6.0	69	-1.9	0	2	270	0.00	30.502 
09:05	6.1	6.1	6.1	69	-1.9	0	2	270	0.00	30.502 
09:10	6.3	6.3	6.3	70	-1.4	0	2	270	0.00	30.502 
09:15	6.7	6.7	6.7	69	-1.3	0	3	270	0.00	30.503 
09:20	6.9	6.9	6.9	69	-1.1	0	2	270	0.00	30.503 
09:25	7.0	7.0	7.0	69	-1.0	0	2	270	0.00	30.503 
09:30	7.2	7.2	7.2	69	-0.8	1	3	270	0.00	30.511 
09:35	7.4	7.4	7.4	69	-0.6	1	2	270	0.00	30.511 
09:40	7.7	7.7	7.7	68	-0.6	0	3	270	0.00	30.511 
09:45	7.9	7.9	7.9	68	-0.4	0	2	270	0.00	30.514 
09:50	8.3	8.3	8.3	68	-0.0	0	3	270	0.00	30.514 
09:55	8.4	8.4	8.4	67	-0.3	0	3	270	0.00	30.514 
10:00	8.6	8.6	8.6	67	-0.1	1	3	270	0.00	30.516 
10:05	8.8	8.8	8.8	67	0.1	1	3	270	0.00	30.516 
10:10	9.0	9.0	9.0	67	0.3	0	2	270	0.00	30.516 
10:15	9.3	9.3	9.3	67	0.6	1	3	270	0.00	30.525 
10:20	9.5	9.5	9.5	67	0.8	1	3	270	0.00	30.525 
10:25	9.7	9.7	9.7	66	0.7	1	3	270	0.00	30.525 
10:30	10.0	10.0	10.0	66	0.9	1	3	270	0.00	30.533 
10:35	10.2	10.2	10.2	66	1.1	0	2	270	0.00	30.533 
10:40	10.5	10.5	10.5	66	1.4	0	2	270	0.00	30.533 
10:45	10.7	10.7	10.7	65	1.3	0	2	270	0.00	30.529 
10:50	10.9	10.9	10.9	65	1.5	0	2	270	0.00	30.529 
10:55	11.4	11.4	11.4	65	2.0	0	2	270	0.00	30.529 
11:00	11.6	11.6	11.6	64	1.8	0	2	270	0.00	30.534 
11:05	11.7	11.7	11.7	64	1.9	0	2	270	0.00	30.534 
11:10	12.1	12.1	12.1	64	2.3	1	2	270	0.00	30.534 
11:15	12.3	12.3	12.3	64	2.5	1	3	270	0.00	30.539 
11:20	12.4	12.4	12.4	64	2.6	1	3	270	0.00	30.539 
11:25	12.8	12.8	12.8	64	3.0	0	3	270	0.00	30.539 
11:30	13.1	13.1	13.1	64	3.2	0	2	270	0.00	30.539 
11:35	13.5	13.5	13.5	64	3.6	0	1	270	0.00	30.539 
11:40	13.8	13.8	13.8	63	3.6	0	2	270	0.00	30.539 
11:45	14.0	14.0	14.0	63	3.8	0	2	270	0.00	30.537 
11:50	14.1	14.1	14.1	63	3.9	0	2	270	0.00	30.537 
11:55	14.1	14.1	14.1	62	3.5	1	4	292	0.00	30.537 
12:00	14.1	14.1	14.1	62	3.5	0	2	292	0.00	30.533 
12:05	14.6	14.6	14.6	62	4.0	0	2	292	0.00	30.533 
12:10	14.9	14.9	14.9	62	4.3	0	3	292	0.00	30.533 
12:15	15.1	15.1	15.1	62	4.5	0	2	292	0.00	30.528 
12:20	15.4	15.4	15.4	62	4.7	0	3	292	0.00	30.528 
12:25	15.7	15.7	15.7	62	5.0	1	4	292	0.00	30.528 
12:30	15.6	15.6	15.6	62	4.9	0	4	292	0.00	30.525 
12:35	15.9	15.9	15.9	62	5.2	1	3	292	0.00	30.525 
12:40	16.1	16.1	16.1	62	5.4	1	3	315	0.00	30.525 
12:45	16.2	16.2	16.2	62	5.5	0	3	270	0.00	30.524 
12:50	16.4	16.4	16.4	62	5.7	0	2	270	0.00	30.524 
12:55	16.5	16.5	16.5	61	5.4	1	3	270	0.00	30.524 
13:00	16.9	16.9	16.9	62	6.2	0	2	270	0.00	30.522 
13:05	17.0	17.0	17.0	61	5.9	1	2	270	0.00	30.522 
13:10	17.0	17.0	17.0	61	5.9	0	2	270	0.00	30.522 
13:15	17.3	17.3	17.3	62	6.5	0	1	270	0.00	30.515 
13:20	17.5	17.5	17.5	61	6.4	0	2	270	0.00	30.515 
13:25	17.8	17.8	17.8	61	6.7	0	4	270	0.00	30.515 
13:30	17.7	17.7	17.7	60	6.2	1	4	338	0.00	30.506 
13:35	18.0	18.0	18.0	61	6.9	0	3	315	0.00	30.506 
13:40	18.1	18.1	18.1	60	6.6	0	2	315	0.00	30.506 
13:45	18.3	18.3	18.3	60	6.8	0	2	315	0.00	30.503 
13:50	18.6	18.6	18.6	59	6.7	0	1	315	0.00	30.503 
13:55	18.8	18.8	18.8	59	6.9	0	2	45	0.00	30.503 
14:00	19.2	19.2	19.2	58	6.9	0	2	45	0.00	30.494 
14:05	19.2	19.2	19.2	58	6.9	0	2	45	0.00	30.494 
14:10	19.2	19.2	19.2	58	6.9	0	1	45	0.00	30.494 
14:15	19.2	19.2	19.2	56	6.1	0	2	45	0.00	30.490 
14:20	19.4	19.4	19.4	56	6.3	0	1	45	0.00	30.490 
14:25	19.9	19.9	19.9	56	6.8	0	1	45	0.00	30.490 
14:30	20.2	20.2	20.2	56	7.0	0	1	45	0.00	30.489 
14:35	20.5	20.5	20.5	53	6.1	0	1	45	0.00	30.489 
14:40	20.5	20.5	20.5	51	5.3	0	1	45	0.00	30.489 
14:45	20.3	20.3	20.3	52	5.5	0	2	45	0.00	30.486 
14:50	20.2	20.2	20.2	52	5.4	0	1	45	0.00	30.486 
14:55	20.3	20.3	20.3	52	5.5	0	1	45	0.00	30.486 
15:00	20.2	20.2	20.2	52	5.4	0	1	45	0.00	30.484 
15:05	20.2	20.2	20.2	50	4.6	0	1	45	0.00	30.484 
15:10	20.3	20.3	20.3	51	5.1	0	2	45	0.00	30.484 
15:15	20.3	20.3	20.3	50	4.7	0	2	45	0.00	30.483 
15:20	20.3	20.3	20.3	51	5.1	0	1	45	0.00	30.483 
15:25	20.2	20.2	20.2	50	4.6	0	2	45	0.00	30.483 
15:30	20.2	20.2	20.2	50	4.6	0	2	45	0.00	30.485 
15:35	20.5	20.5	20.5	53	6.1	0	2	45	0.00	30.485 
15:40	21.3	21.3	21.3	51	6.0	0	2	45	0.00	30.485 
15:45	21.0	21.0	21.0	50	5.3	0	2	45	0.00	30.482 
15:50	20.6	20.6	20.6	51	5.4	0	2	45	0.00	30.482 
15:55	20.3	20.3	20.3	51	5.1	0	2	45	0.00	30.482 
16:00	20.0	20.0	20.0	52	5.2	0	2	315	0.00	30.489 
16:05	20.0	20.0	20.0	53	5.7	0	1	270	0.00	30.489 
16:10	20.0	20.0	20.0	54	6.1	0	1	270	0.00	30.489 
16:15	19.9	19.9	19.9	53	5.6	0	1	270	0.00	30.489 
16:20	19.7	19.7	19.7	53	5.4	0	1	270	0.00	30.489 
16:25	19.5	19.5	19.5	54	5.6	0	1	270	0.00	30.489 
16:30	19.4	19.4	19.4	54	5.5	0	1	270	0.00	30.489 
16:35	19.2	19.2	19.2	54	5.3	0	1	270	0.00	30.489 
16:40	19.1	19.1	19.1	55	5.6	0	1	270	0.00	30.489 
16:45	18.9	18.9	18.9	55	5.4	0	1	270	0.00	30.489 
16:50	18.8	18.8	18.8	55	5.3	0	1	270	0.00	30.489 
16:55	18.8	18.8	18.8	56	5.7	0	1	270	0.00	30.489 
17:00	18.6	18.6	18.6	56	5.5	0	1	270	0.00	30.491 
17:05	18.6	18.6	18.6	57	5.9	0	1	270	0.00	30.491 
17:10	18.6	18.6	18.6	56	5.5	0	1	270	0.00	30.491 
17:15	18.4	18.4	18.4	57	5.7	0	1	270	0.00	30.494 
17:20	18.4	18.4	18.4	57	5.7	0	1	270	0.00	30.494 
17:25	18.3	18.3	18.3	57	5.7	0	1	270	0.00	30.494 
17:30	18.1	18.1	18.1	58	5.8	0	0	---	0.00	30.495 
17:35	18.0	18.0	18.0	58	5.7	0	1	270	0.00	30.495 
17:40	17.7	17.7	17.7	58	5.5	0	1	270	0.00	30.495 
17:45	17.5	17.5	17.5	59	5.6	0	1	270	0.00	30.492 
17:50	17.3	17.3	17.3	59	5.5	0	0	---	0.00	30.492 
17:55	17.2	17.2	17.2	59	5.4	0	1	270	0.00	30.492 
18:00	17.0	17.0	17.0	59	5.2	0	0	---	0.00	30.496 
18:05	16.9	16.9	16.9	59	5.1	0	0	---	0.00	30.496 
18:10	16.5	16.5	16.5	59	4.7	0	0	---	0.00	30.496 
18:15	16.4	16.4	16.4	60	5.0	0	0	---	0.00	30.490 
18:20	16.1	16.1	16.1	60	4.7	0	0	---	0.00	30.490 
18:25	15.9	15.9	15.9	60	4.5	0	0	---	0.00	30.490 
18:30	15.6	15.6	15.6	61	4.6	0	0	---	0.00	30.491 
18:35	15.4	15.4	15.4	61	4.4	0	0	---	0.00	30.491 
18:40	15.1	15.1	15.1	62	4.5	0	0	---	0.00	30.491 
18:45	14.9	14.9	14.9	62	4.3	0	0	---	0.00	30.494 
18:50	14.8	14.8	14.8	63	4.5	0	0	---	0.00	30.494 
18:55	14.6	14.6	14.6	63	4.3	0	0	---	0.00	30.494 
19:00	14.3	14.3	14.3	64	4.4	0	0	---	0.00	30.493 
19:05	14.1	14.1	14.1	64	4.2	0	0	---	0.00	30.493 
19:10	14.0	14.0	14.0	65	4.4	0	0	---	0.00	30.493 
19:15	13.8	13.8	13.8	65	4.2	0	0	---	0.00	30.497 
19:20	13.6	13.6	13.6	65	4.1	0	0	---	0.00	30.497 
19:25	13.5	13.5	13.5	66	4.3	0	0	---	0.00	30.497 
19:30	13.3	13.3	13.3	66	4.1	0	0	---	0.00	30.496 
19:35	13.1	13.1	13.1	67	4.2	0	0	---	0.00	30.496 
19:40	12.9	12.9	12.9	68	4.4	0	0	---	0.00	30.496 
19:45	12.9	12.9	12.9	68	4.4	0	0	---	0.00	30.494 
19:50	12.8	12.8	12.8	68	4.3	0	0	---	0.00	30.494 
19:55	12.6	12.6	12.6	69	4.4	0	0	---	0.00	30.494 
20:00	12.4	12.4	12.4	69	4.2	0	0	---	0.00	30.497 
20:05	12.4	12.4	12.4	69	4.2	0	0	---	0.00	30.497 
20:10	12.4	12.4	12.4	70	4.5	0	0	---	0.00	30.497 
20:15	12.3	12.3	12.3	71	4.7	0	0	---	0.00	30.496 
20:20	12.3	12.3	12.3	71	4.7	0	0	---	0.00	30.496 
20:25	12.1	12.1	12.1	71	4.5	0	0	---	0.00	30.496 
20:30	12.1	12.1	12.1	71	4.5	0	0	---	0.00	30.495 
20:35	11.9	11.9	11.9	71	4.3	0	0	---	0.00	30.495 
20:40	11.9	11.9	11.9	72	4.6	0	0	---	0.00	30.495 
20:45	11.7	11.7	11.7	72	4.4	0	0	---	0.00	30.495 
20:50	11.7	11.7	11.7	72	4.4	0	0	---	0.00	30.495 
20:55	11.6	11.6	11.6	72	4.4	0	0	---	0.00	30.495 
21:00	11.6	11.6	11.6	73	4.7	0	0	---	0.00	30.496 
21:05	11.7	11.7	11.7	73	4.7	0	0	---	0.00	30.496 
21:10	11.7	11.7	11.7	73	4.7	0	0	---	0.00	30.496 
21:15	11.7	11.7	11.7	73	4.7	0	0	---	0.00	30.490 
21:20	11.7	11.7	11.7	73	4.7	0	0	---	0.00	30.490 
21:25	11.7	11.7	11.7	73	4.7	0	0	---	0.00	30.490 
21:30	11.7	11.7	11.7	73	4.7	0	0	---	0.00	30.483 
21:35	11.6	11.6	11.6	73	4.7	0	0	---	0.00	30.483 
21:40	11.6	11.6	11.6	73	4.7	0	0	---	0.00	30.483 
21:45	11.4	11.4	11.4	73	4.5	0	0	---	0.00	30.476 
21:50	11.4	11.4	11.4	74	4.8	0	0	---	0.00	30.476 
21:55	11.4	11.4	11.4	74	4.8	0	0	---	0.00	30.476 
22:00	11.4	11.4	11.4	74	4.8	0	0	---	0.00	30.462 
22:05	11.6	11.6	11.6	74	4.9	0	0	---	0.00	30.462 
22:10	11.4	11.4	11.4	74	4.8	0	0	---	0.00	30.462 
22:15	11.4	11.4	11.4	75	5.0	0	0	---	0.00	30.459 
22:20	11.4	11.4	11.4	75	5.0	0	0	---	0.00	30.459 
22:25	11.4	11.4	11.4	75	5.0	0	0	---	0.00	30.459 
22:30	11.4	11.4	11.4	75	5.0	0	0	---	0.00	30.460 
22:35	11.6	11.6	11.6	75	5.2	0	0	---	0.00	30.460 
22:40	11.7	11.7	11.7	76	5.6	0	1	270	0.00	30.460 
22:45	12.1	12.1	12.1	76	6.0	0	1	270	0.00	30.444 
22:50	12.3	12.3	12.3	75	5.9	0	0	---	0.00	30.444 
22:55	12.4	12.4	12.4	75	6.0	0	0	---	0.00	30.444 
23:00	12.4	12.4	12.4	75	6.0	0	0	---	0.00	30.444 
23:05	12.6	12.6	12.6	75	6.2	0	0	---	0.00	30.444 
23:10	12.8	12.8	12.8	74	6.1	0	1	270	0.00	30.444 
23:15	12.9	12.9	12.9	74	6.2	0	0	---	0.00	30.438 
23:20	12.9	12.9	12.9	73	5.9	0	0	---	0.00	30.438 
23:25	13.1	13.1	13.1	73	6.1	0	0	---	0.00	30.438 
23:30	13.1	13.1	13.1	73	6.1	0	0	---	0.00	30.438 
23:35	13.3	13.3	13.3	73	6.3	0	0	---	0.00	30.438 
23:40	13.5	13.5	13.5	73	6.5	0	0	---	0.00	30.438 
23:45	13.5	13.5	13.5	73	6.5	0	1	270	0.00	30.433 
23:50	13.6	13.6	13.6	73	6.6	0	0	---	0.00	30.433 
23:55	13.6	13.6	13.6	73	6.6	0	0	---	0.00	30.433 

CoCoRaHS
IN-AL-39
A2 Web Hosting
Creative Commons License
GoDaddy
search engine by freefind advanced

loaded 2018-11-17 05:42:35 • last modified 2010-11-18 10:43:29
Privacy PolicyDisclaimer
• wx.awcolley.com is powered by PmWiki v.2002016 •
• all content (unless otherwise noted) © 2018 A W Colley